Time;durP1;ratioP1;P1;durP2;ratioP2;P2;SDS_P1;SDS_P2;PMS_P1;PMS_P2;Temp;Humidity;BMP_temperature;BMP_pressure;BME280_temperature;BME280_humidity;BME280_pressure;Samples;Min_cycle;Max_cycle;Signal;HPM_P1;HPM_P2
2023/02/27 00:01:58;;;;;;;32.50;12.90;;;;;;;3.05;100.00;101102.29;106622;1285;58085;-80
2023/02/27 00:04:23;;;;;;;26.90;11.50;;;;;;;3.04;100.00;101108.52;106794;1285;58269;-82
2023/02/27 00:06:49;;;;;;;30.10;12.50;;;;;;;3.05;100.00;101113.02;106526;1285;58288;-82
2023/02/27 00:09:14;;;;;;;25.30;11.70;;;;;;;3.06;100.00;101118.48;106745;1285;58222;-82
2023/02/27 00:11:41;;;;;;;31.60;12.30;;;;;;;3.06;100.00;101120.52;106457;1286;58306;-81
2023/02/27 00:14:06;;;;;;;28.30;12.10;;;;;;;3.06;100.00;101117.59;106719;1286;58155;-81
2023/02/27 00:16:33;;;;;;;33.30;12.50;;;;;;;3.06;100.00;101111.27;106671;1286;58510;-81
2023/02/27 00:19:00;;;;;;;31.00;12.10;;;;;;;3.05;100.00;101104.98;106706;1287;58432;-81
2023/02/27 00:21:25;;;;;;;30.00;12.70;;;;;;;3.04;100.00;101090.20;106721;1286;58131;-82
2023/02/27 00:23:51;;;;;;;27.20;11.70;;;;;;;3.03;100.00;101100.69;106707;1286;58128;-81
2023/02/27 00:26:16;;;;;;;26.00;11.60;;;;;;;3.01;100.00;101109.73;106708;1285;58208;-81
2023/02/27 00:28:42;;;;;;;23.00;10.40;;;;;;;3.01;100.00;101110.42;106722;1286;58543;-81
2023/02/27 00:31:07;;;;;;;23.20;10.50;;;;;;;3.02;100.00;101113.01;106768;1285;60942;-81
2023/02/27 00:33:33;;;;;;;24.20;10.30;;;;;;;3.04;100.00;101113.52;106772;1286;58210;-81
2023/02/27 00:36:00;;;;;;;20.00;9.60;;;;;;;3.04;100.00;101112.90;106686;1286;58296;-81
2023/02/27 00:38:26;;;;;;;22.50;9.60;;;;;;;3.05;100.00;101108.72;106662;1286;58206;-81
2023/02/27 00:40:51;;;;;;;24.40;10.10;;;;;;;3.06;100.00;101107.67;106691;1286;58387;-81
2023/02/27 00:43:17;;;;;;;19.90;9.50;;;;;;;3.05;100.00;101102.90;106709;1286;58134;-81
2023/02/27 00:45:42;;;;;;;20.50;9.60;;;;;;;3.04;100.00;101099.09;106779;1285;58033;-80
2023/02/27 00:48:08;;;;;;;24.20;9.30;;;;;;;3.03;100.00;101097.08;106713;1286;58091;-81
2023/02/27 00:50:33;;;;;;;20.30;9.30;;;;;;;3.06;100.00;101091.70;106733;1286;58197;-82
2023/02/27 00:52:59;;;;;;;19.90;9.10;;;;;;;3.08;100.00;101100.55;106722;1286;58072;-81
2023/02/27 00:55:24;;;;;;;20.00;9.20;;;;;;;3.05;100.00;101110.33;106699;1286;58545;-82
2023/02/27 00:57:50;;;;;;;21.10;9.50;;;;;;;3.04;100.00;101112.24;106696;1287;58736;-81
2023/02/27 01:00:16;;;;;;;23.90;10.60;;;;;;;3.04;100.00;101117.77;106686;1287;58181;-82
2023/02/27 01:02:41;;;;;;;23.40;10.10;;;;;;;3.04;100.00;101113.14;106713;1288;58437;-81
2023/02/27 01:05:08;;;;;;;26.40;10.30;;;;;;;3.05;100.00;101111.42;106314;1291;58215;-81
2023/02/27 01:07:33;;;;;;;20.10;9.90;;;;;;;3.04;100.00;101112.03;106342;1290;58153;-81
2023/02/27 01:09:59;;;;;;;21.80;9.10;;;;;;;3.03;100.00;101111.12;106343;1290;58214;-81
2023/02/27 01:12:25;;;;;;;21.80;8.90;;;;;;;3.03;100.00;101118.59;106359;1291;58136;-81
2023/02/27 01:14:50;;;;;;;19.20;8.60;;;;;;;3.01;100.00;101129.10;106381;1291;58701;-81
2023/02/27 01:17:16;;;;;;;18.70;8.60;;;;;;;3.00;100.00;101134.38;106199;1292;58285;-82
2023/02/27 01:19:41;;;;;;;19.90;9.40;;;;;;;3.01;100.00;101136.08;106319;1290;58555;-81
2023/02/27 01:22:07;;;;;;;20.70;9.00;;;;;;;3.01;100.00;101127.70;106371;1291;58176;-82
2023/02/27 01:24:32;;;;;;;22.80;9.00;;;;;;;3.01;100.00;101127.02;106369;1291;59422;-82
2023/02/27 01:26:58;;;;;;;20.10;9.00;;;;;;;3.01;100.00;101128.44;106381;1290;58151;-81
2023/02/27 01:29:23;;;;;;;25.20;9.40;;;;;;;2.99;100.00;101126.68;106362;1288;58349;-82
2023/02/27 01:31:49;;;;;;;20.90;9.40;;;;;;;2.97;100.00;101129.27;106418;1288;58150;-82
2023/02/27 01:34:15;;;;;;;23.30;9.90;;;;;;;2.98;100.00;101134.00;106494;1288;58140;-82
2023/02/27 01:36:41;;;;;;;24.60;9.50;;;;;;;2.97;100.00;101132.27;106693;1285;58142;-81
2023/02/27 01:39:07;;;;;;;21.60;9.30;;;;;;;2.97;100.00;101138.66;106694;1286;58586;-82
2023/02/27 01:41:32;;;;;;;20.50;9.30;;;;;;;2.97;100.00;101143.08;106857;1285;58757;-81
2023/02/27 01:44:03;;;;;;;24.60;9.70;;;;;;;2.95;100.00;101141.69;106876;1285;60443;-81
2023/02/27 01:46:30;;;;;;;19.50;9.10;;;;;;;2.96;100.00;101144.30;106828;1285;73654;-81
2023/02/27 01:49:07;;;;;;;19.90;9.20;;;;;;;2.97;100.00;101152.49;106842;1285;74266;-82
2023/02/27 01:51:39;;;;;;;23.90;10.50;;;;;;;2.98;100.00;101156.88;106821;1285;73451;-82
2023/02/27 01:54:08;;;;;;;23.30;10.40;;;;;;;2.98;100.00;101169.10;106798;1285;60005;-82
2023/02/27 01:56:34;;;;;;;23.80;10.00;;;;;;;2.99;100.00;101169.09;106714;1285;61089;-81
2023/02/27 01:59:05;;;;;;;27.00;10.70;;;;;;;3.02;100.00;101168.26;106776;1285;58177;-81
2023/02/27 02:01:33;;;;;;;28.10;10.30;;;;;;;3.02;100.00;101167.48;106757;1285;74203;-82
2023/02/27 02:04:25;;;;;;;23.50;10.40;;;;;;;3.02;100.00;101177.31;106720;1285;73579;-82
2023/02/27 02:07:14;;;;;;;24.80;10.60;;;;;;;3.04;100.00;101182.52;106766;1285;62091;-82
2023/02/27 02:09:47;;;;;;;26.50;11.20;;;;;;;3.04;100.00;101181.79;106693;1285;61087;-82
2023/02/27 02:12:16;;;;;;;25.90;10.60;;;;;;;3.03;100.00;101178.02;106841;1285;73881;-81
2023/02/27 02:14:42;;;;;;;30.00;11.30;;;;;;;3.02;100.00;101177.03;106811;1285;74532;-81
2023/02/27 02:17:22;;;;;;;26.40;11.40;;;;;;;3.01;100.00;101181.45;106775;1285;58057;-82
2023/02/27 02:20:06;;;;;;;29.70;11.90;;;;;;;3.00;100.00;101181.03;106746;1285;62107;-83
2023/02/27 02:22:43;;;;;;;27.40;11.40;;;;;;;2.99;100.00;101184.30;106746;1285;61183;-82
2023/02/27 02:25:47;;;;;;;29.10;11.70;;;;;;;2.97;100.00;101185.02;106792;1285;72685;-82
2023/02/27 02:28:31;;;;;;;;;;;;;;;2.97;100.00;101189.98;106783;1285;74486;-81
2023/02/27 02:31:07;;;;;;;;;;;;;;;2.96;100.00;101188.77;106786;1285;72686;-82
2023/02/27 02:34:14;;;;;;;30.10;12.20;;;;;;;2.95;100.00;101180.66;106836;1285;60836;-81
2023/02/27 02:36:51;;;;;;;29.20;12.00;;;;;;;2.92;100.00;101178.15;106289;1290;59966;-82
2023/02/27 02:39:49;;;;;;;30.90;12.00;;;;;;;2.90;100.00;101181.98;106329;1290;72891;-82
2023/02/27 02:42:14;;;;;;;28.80;11.50;;;;;;;2.88;100.00;101178.09;105894;1295;74344;-82
2023/02/27 02:45:01;;;;;;;36.80;13.80;;;;;;;2.87;100.00;101183.55;105872;1296;58324;-82
2023/02/27 02:47:54;;;;;;;34.80;12.90;;;;;;;2.86;100.00;101192.58;105846;1295;60898;-82
2023/02/27 02:50:34;;;;;;;34.50;12.20;;;;;;;2.87;100.00;101203.17;105876;1295;60079;-82
2023/02/27 02:53:15;;;;;;;33.00;12.60;;;;;;;2.88;100.00;101207.44;105868;1296;72601;-82
2023/02/27 02:55:49;;;;;;;36.10;13.90;;;;;;;2.87;100.00;101204.65;105924;1297;74469;-82
2023/02/27 02:58:25;;;;;;;35.60;13.60;;;;;;;2.88;100.00;101205.15;105849;1295;72660;-83
2023/02/27 03:01:23;;;;;;;31.30;12.70;;;;;;;2.89;100.00;101202.54;105783;1295;61044;-82
2023/02/27 03:03:55;;;;;;;47.10;14.00;;;;;;;2.88;100.00;101199.95;105521;1300;61144;-82
2023/02/27 03:06:31;;;;;;;34.10;12.40;;;;;;;2.85;100.00;101202.09;105557;1300;73005;-81
2023/02/27 03:09:22;;;;;;;37.60;12.50;;;;;;;2.84;100.00;101220.89;105459;1301;74366;-80
2023/02/27 03:11:51;;;;;;;34.60;12.50;;;;;;;2.87;100.00;101233.11;105432;1301;73776;-83
2023/02/27 03:14:33;;;;;;;35.90;12.70;;;;;;;2.90;100.00;101215.03;105432;1301;61050;-83
2023/02/27 03:17:05;;;;;;;35.30;12.70;;;;;;;2.89;100.00;101200.03;105473;1302;61203;-82
2023/02/27 03:19:39;;;;;;;46.10;13.10;;;;;;;2.85;100.00;101179.91;105576;1297;74845;-82
2023/02/27 03:22:09;;;;;;;37.60;12.50;;;;;;;2.79;100.00;101172.70;105701;1297;74494;-82
2023/02/27 03:24:45;;;;;;;39.10;12.70;;;;;;;2.77;100.00;101185.83;105717;1298;73298;-82
2023/02/27 03:27:12;;;;;;;36.80;13.30;;;;;;;2.77;100.00;101198.96;105510;1300;60873;-81
2023/02/27 03:29:43;;;;;;;38.70;13.50;;;;;;;2.77;100.00;101206.84;105679;1298;58308;-82
2023/02/27 03:32:16;;;;;;;40.10;14.90;;;;;;;2.80;100.00;101180.00;105726;1297;74623;-82
2023/02/27 03:34:42;;;;;;;44.40;16.20;;;;;;;2.81;100.00;101133.20;105711;1297;73646;-82
2023/02/27 03:37:13;;;;;;;45.70;15.50;;;;;;;2.81;100.00;101121.45;105693;1297;58265;-81
2023/02/27 03:39:57;;;;;;;42.20;14.10;;;;;;;2.79;100.00;101148.79;105726;1294;60969;-82
2023/02/27 03:42:34;;;;;;;41.60;14.50;;;;;;;2.78;100.00;101148.00;106075;1292;61002;-81
2023/02/27 03:45:07;;;;;;;43.40;14.20;;;;;;;2.80;100.00;101156.42;106049;1293;74619;-81
2023/02/27 03:47:35;;;;;;;38.90;13.70;;;;;;;2.79;100.00;101167.75;106070;1292;73344;-80
2023/02/27 03:50:00;;;;;;;39.10;13.30;;;;;;;2.81;100.00;101173.58;106647;1285;73581;-81
2023/02/27 03:52:28;;;;;;;38.10;12.50;;;;;;;2.82;100.00;101174.48;106708;1286;58528;-82
2023/02/27 03:55:00;;;;;;;37.60;13.90;;;;;;;2.83;100.00;101170.39;106808;1285;61300;-81
2023/02/27 03:57:26;;;;;;;40.10;14.40;;;;;;;2.84;100.00;101180.67;106758;1285;74092;-82
2023/02/27 03:59:52;;;;;;;43.00;14.40;;;;;;;2.81;100.00;101174.60;106742;1285;58373;-81
2023/02/27 04:02:18;;;;;;;35.70;13.50;;;;;;;2.82;100.00;101177.34;106715;1285;58290;-82
2023/02/27 04:04:44;;;;;;;39.90;14.20;;;;;;;2.82;100.00;101168.30;106491;1285;58303;-82
2023/02/27 04:07:47;;;;;;;37.00;13.20;;;;;;;2.81;100.00;101168.50;106795;1285;58269;-78
2023/02/27 04:10:13;;;;;;;35.50;12.80;;;;;;;2.80;100.00;101167.22;106308;1291;73966;-80
2023/02/27 04:12:41;;;;;;;32.00;12.60;;;;;;;2.80;100.00;101163.89;106276;1291;58308;-76
2023/02/27 04:15:09;;;;;;;32.50;12.30;;;;;;;2.78;100.00;101176.38;106237;1291;73433;-78
2023/02/27 04:17:47;;;;;;;32.00;12.40;;;;;;;2.78;100.00;101180.99;106263;1291;60987;-78
2023/02/27 04:21:06;;;;;;;39.00;12.90;;;;;;;2.77;100.00;101204.87;106243;1291;60185;-77
2023/02/27 04:23:40;;;;;;;30.50;12.10;;;;;;;2.80;100.00;101213.65;105731;1298;74666;-80
2023/02/27 04:26:05;;;;;;;26.30;10.70;;;;;;;2.81;100.00;101224.64;105709;1297;74227;-80
2023/02/27 04:28:40;;;;;;;33.30;11.10;;;;;;;2.83;100.00;101225.42;105737;1297;58265;-79
2023/02/27 04:31:19;;;;;;;34.00;11.40;;;;;;;2.84;100.00;101219.73;105697;1297;61112;-80
2023/02/27 04:34:10;;;;;;;28.80;10.70;;;;;;;2.84;100.00;101199.63;105714;1297;61211;-81
2023/02/27 04:36:49;;;;;;;26.00;11.40;;;;;;;2.82;100.00;101186.89;105392;1303;74656;-78
2023/02/27 04:39:22;;;;;;;34.60;11.40;;;;;;;2.80;100.00;101183.42;105334;1303;73844;-79
2023/02/27 04:41:56;;;;;;;31.10;11.60;;;;;;;2.80;100.00;101179.67;105353;1303;72399;-80
2023/02/27 04:44:25;;;;;;;36.10;11.90;;;;;;;2.81;100.00;101184.23;105338;1303;61085;-80
2023/02/27 04:46:53;;;;;;;27.90;10.90;;;;;;;2.81;100.00;101194.79;105546;1297;61303;-78
2023/02/27 04:49:24;;;;;;;31.90;11.50;;;;;;;2.82;100.00;101191.84;105867;1297;74611;-78
2023/02/27 04:51:57;;;;;;;33.20;11.20;;;;;;;2.84;100.00;101180.02;105792;1296;74336;-80
2023/02/27 04:54:34;;;;;;;31.50;10.90;;;;;;;2.82;100.00;101171.78;105816;1292;73528;-79
2023/02/27 04:57:06;;;;;;;30.80;11.20;;;;;;;2.84;100.00;101188.66;106232;1291;62133;-81
2023/02/27 04:59:43;;;;;;;36.30;11.40;;;;;;;2.84;100.00;101191.60;106288;1291;60234;-81
2023/02/27 05:02:16;;;;;;;30.80;10.70;;;;;;;2.84;100.00;101186.45;106243;1291;74803;-81
2023/02/27 05:04:44;;;;;;;35.70;11.50;;;;;;;2.83;100.00;101182.30;106105;1291;74709;-81
2023/02/27 05:07:15;;;;;;;31.00;10.30;;;;;;;2.86;100.00;101182.15;106223;1291;73461;-81
2023/02/27 05:09:54;;;;;;;35.90;10.10;;;;;;;2.85;100.00;101191.13;106145;1292;61011;-80
2023/02/27 05:12:28;;;;;;;29.10;10.00;;;;;;;2.85;100.00;101192.68;106087;1292;61278;-81
2023/02/27 05:15:00;;;;;;;30.80;11.40;;;;;;;2.85;100.00;101196.28;106756;1285;73305;-80
2023/02/27 05:17:37;;;;;;;30.30;10.80;;;;;;;2.88;100.00;101196.35;106790;1285;73318;-81
2023/02/27 05:20:06;;;;;;;30.10;11.10;;;;;;;2.86;100.00;101201.59;106755;1285;73660;-80
2023/02/27 05:23:00;;;;;;;33.60;10.90;;;;;;;2.88;100.00;101206.30;106715;1285;61933;-77
2023/02/27 05:25:36;;;;;;;34.70;10.60;;;;;;;2.90;100.00;101210.20;106733;1285;58997;-81
2023/02/27 05:28:20;;;;;;;30.40;10.20;;;;;;;2.90;100.00;101211.60;106733;1285;73540;-80
2023/02/27 05:30:56;;;;;;;33.50;10.30;;;;;;;2.91;100.00;101195.43;106756;1285;73372;-81
2023/02/27 05:34:09;;;;;;;29.00;10.00;;;;;;;2.91;100.00;101192.61;106802;1285;72817;-80
2023/02/27 05:36:45;;;;;;;35.20;10.00;;;;;;;2.92;100.00;101210.08;106293;1290;61800;-82
2023/02/27 05:39:13;;;;;;;27.60;9.70;;;;;;;2.95;100.00;101213.30;106287;1291;59636;-81
2023/02/27 05:41:45;;;;;;;33.20;10.50;;;;;;;2.96;100.00;101213.02;106297;1291;73715;-81
2023/02/27 05:44:17;;;;;;;32.10;10.60;;;;;;;2.97;100.00;101214.09;106284;1290;73520;-81
2023/02/27 05:47:09;;;;;;;39.30;12.00;;;;;;;2.94;100.00;101218.11;106329;1290;73367;-79
2023/02/27 05:49:46;;;;;;;40.20;12.50;;;;;;;2.98;100.00;101216.65;106269;1290;59927;-81
2023/02/27 05:52:18;;;;;;;39.70;11.20;;;;;;;2.96;100.00;101228.71;106272;1290;61211;-81
2023/02/27 05:54:51;;;;;;;40.20;12.20;;;;;;;2.98;100.00;101234.75;106303;1290;74425;-80
2023/02/27 05:57:23;;;;;;;;;;;;;;;3.00;100.00;101232.11;106358;1291;73568;-80
2023/02/27 06:00:02;;;;;;;61.90;20.30;;;;;;;3.01;100.00;101233.79;106284;1290;73597;-82
2023/02/27 06:02:27;;;;;;;45.70;12.80;;;;;;;3.01;100.00;101242.40;106309;1291;62089;-82
2023/02/27 06:04:53;;;;;;;41.40;12.40;;;;;;;3.01;100.00;101248.86;106353;1291;58328;-82
2023/02/27 06:07:31;;;;;;;30.90;11.50;;;;;;;3.04;100.00;101249.34;106129;1291;58265;-80
2023/02/27 06:09:57;;;;;;;29.30;10.50;;;;;;;3.08;100.00;101250.34;106388;1285;74598;-82
2023/02/27 06:15:45;;;;;;;35.70;10.80;;;;;;;3.09;100.00;101247.20;106780;1285;59692;-82
2023/02/27 06:21:49;;;;;;;39.50;11.50;;;;;;;3.13;100.00;101244.86;103058;1291;600266;-82
2023/02/27 06:24:15;;;;;;;40.90;11.10;;;;;;;3.14;100.00;101252.39;102976;1295;60536;-81
2023/02/27 06:26:40;;;;;;;42.10;11.40;;;;;;;3.13;100.00;101253.95;103123;1292;60380;-81
2023/02/27 06:29:06;;;;;;;47.30;12.10;;;;;;;3.12;100.00;101252.80;102937;1295;60583;-81
2023/02/27 06:31:31;;;;;;;44.50;12.20;;;;;;;3.12;100.00;101248.54;103103;1289;73309;-81
2023/02/27 06:33:57;;;;;;;48.80;12.10;;;;;;;3.11;100.00;101240.41;102989;1299;60520;-81
2023/02/27 06:36:23;;;;;;;46.70;12.40;;;;;;;3.10;100.00;101241.47;103381;1286;252849;-81
2023/02/27 06:38:48;;;;;;;48.50;12.10;;;;;;;3.10;100.00;101233.98;103581;1287;60283;-81
2023/02/27 06:41:14;;;;;;;60.30;12.70;;;;;;;3.12;100.00;101232.55;103748;1286;60332;-80
2023/02/27 06:43:40;;;;;;;50.40;11.80;;;;;;;3.15;100.00;101230.61;103535;1290;61814;-80
2023/02/27 06:46:05;;;;;;;42.90;12.50;;;;;;;3.18;100.00;101227.18;103473;1289;60357;-80
2023/02/27 06:48:31;;;;;;;51.50;12.20;;;;;;;3.22;100.00;101232.91;103242;1292;60379;-81
2023/02/27 06:50:57;;;;;;;57.60;12.50;;;;;;;3.26;100.00;101234.66;103669;1285;60371;-81
2023/02/27 06:56:45;;;;;;;51.60;12.00;;;;;;;3.29;100.00;101240.45;103773;1285;62597;-80
2023/02/27 06:59:10;;;;;;;58.80;12.20;;;;;;;3.29;100.00;101235.38;103519;1288;60434;-80
2023/02/27 07:01:36;;;;;;;47.50;12.50;;;;;;;3.30;100.00;101232.66;104016;1286;61176;-82
2023/02/27 07:04:01;;;;;;;53.00;12.10;;;;;;;3.35;100.00;101226.42;103907;1289;60904;-82
2023/02/27 07:06:27;;;;;;;51.30;12.10;;;;;;;3.39;100.00;101217.71;103667;1286;60261;-81
2023/02/27 07:08:53;;;;;;;62.50;13.50;;;;;;;3.46;100.00;101223.29;103765;1289;60382;-80
2023/02/27 07:11:18;;;;;;;56.90;13.00;;;;;;;3.52;100.00;101220.27;103645;1285;60414;-81
2023/02/27 07:13:44;;;;;;;58.70;12.80;;;;;;;3.59;100.00;101218.02;103616;1286;60370;-81
2023/02/27 07:16:09;;;;;;;59.20;12.70;;;;;;;3.69;100.00;101216.05;103302;1285;60455;-80
2023/02/27 07:18:35;;;;;;;52.80;11.90;;;;;;;3.79;100.00;101212.07;103264;1292;60423;-81
2023/02/27 07:21:00;;;;;;;49.90;10.90;;;;;;;3.81;100.00;101210.54;103732;1288;60440;-81
2023/02/27 07:23:26;;;;;;;42.40;10.80;;;;;;;3.81;100.00;101218.93;103316;1286;61183;-80
2023/02/27 07:25:52;;;;;;;45.80;11.40;;;;;;;3.77;100.00;101224.13;103780;1286;60347;-81
2023/02/27 07:28:17;;;;;;;54.60;11.90;;;;;;;3.80;100.00;101225.08;103715;1285;60390;-81
2023/02/27 07:30:44;;;;;;;52.50;11.00;;;;;;;3.88;100.00;101223.48;103671;1288;60424;-80
2023/02/27 07:33:10;;;;;;;50.40;11.70;;;;;;;3.91;100.00;101219.99;103776;1288;60447;-81
2023/02/27 07:35:36;;;;;;;46.50;11.30;;;;;;;3.91;100.00;101220.48;103757;1288;60789;-81
2023/02/27 07:38:02;;;;;;;42.90;11.20;;;;;;;3.94;100.00;101220.77;103723;1284;62244;-80
2023/02/27 07:40:28;;;;;;;41.60;11.20;;;;;;;3.95;100.00;101221.36;103382;1292;60472;-81
2023/02/27 07:46:16;;;;;;;59.00;12.80;;;;;;;4.01;100.00;101222.41;103791;1285;74803;-82
2023/02/27 07:48:42;;;;;;;42.10;9.60;;;;;;;4.03;100.00;101223.23;103668;1285;60472;-82
2023/02/27 07:51:07;;;;;;;46.70;11.60;;;;;;;4.04;100.00;101230.04;103479;1285;60391;-81
2023/02/27 07:53:33;;;;;;;48.00;12.30;;;;;;;3.99;100.00;101235.24;103695;1288;60287;-81
2023/02/27 07:55:59;;;;;;;43.20;10.70;;;;;;;4.00;100.00;101237.55;103523;1286;60350;-80
2023/02/27 07:58:27;;;;;;;46.90;11.30;;;;;;;4.00;100.00;101235.41;103729;1288;60425;-81
2023/02/27 08:00:53;;;;;;;47.30;11.60;;;;;;;4.00;100.00;101243.28;102990;1294;60968;-81
2023/02/27 08:03:19;;;;;;;47.30;12.60;;;;;;;3.99;100.00;101239.38;103724;1286;60392;-82
2023/02/27 08:05:44;;;;;;;44.50;11.70;;;;;;;4.00;100.00;101239.76;103582;1288;60398;-83
2023/02/27 08:11:32;;;;;;;48.10;11.80;;;;;;;4.05;100.00;101238.91;103549;1286;74066;-82
2023/02/27 08:17:24;;;;;;;38.60;11.00;;;;;;;4.08;100.00;101242.73;103589;1286;60267;-83
2023/02/27 08:19:49;;;;;;;43.10;11.30;;;;;;;4.09;100.00;101233.92;103269;1286;71711;-82
2023/02/27 08:22:18;;;;;;;55.50;12.00;;;;;;;4.14;100.00;101235.45;103564;1285;60406;-84
2023/02/27 08:28:06;;;;;;;49.60;13.10;;;;;;;4.15;100.00;101239.80;103230;1289;62692;-83
2023/02/27 08:30:31;;;;;;;42.30;11.40;;;;;;;4.17;100.00;101244.32;103045;1290;60545;-82
2023/02/27 08:32:57;;;;;;;41.70;11.40;;;;;;;4.21;100.00;101250.37;103325;1291;60446;-82
2023/02/27 08:45:29;;;;;;;51.60;12.70;;;;;;;4.29;100.00;101234.88;103180;1289;61820;-82
2023/02/27 08:47:54;;;;;;;49.50;12.00;;;;;;;4.31;100.00;101232.58;103123;1291;60377;-83
2023/02/27 08:50:20;;;;;;;44.10;12.20;;;;;;;4.34;100.00;101239.30;103120;1289;60405;-83
2023/02/27 08:52:45;;;;;;;53.10;12.70;;;;;;;4.38;100.00;101245.50;103349;1290;60431;-83
2023/02/27 08:55:11;;;;;;;44.80;12.20;;;;;;;4.40;100.00;101248.07;102938;1288;60417;-82
2023/02/27 08:57:37;;;;;;;42.10;12.30;;;;;;;4.45;100.00;101256.11;103573;1284;73948;-84
2023/02/27 09:00:06;;;;;;;45.10;12.90;;;;;;;4.48;100.00;101260.44;103527;1291;61134;-82
2023/02/27 09:02:31;;;;;;;42.60;12.90;;;;;;;4.54;100.00;101254.81;103635;1288;73488;-82
2023/02/27 09:04:58;;;;;;;42.30;12.40;;;;;;;4.61;100.00;101257.53;103731;1288;60417;-83
2023/02/27 09:07:23;;;;;;;45.50;12.60;;;;;;;4.68;100.00;101259.02;103578;1286;60312;-83
2023/02/27 09:09:49;;;;;;;43.20;12.50;;;;;;;4.76;100.00;101255.95;103718;1288;60415;-84
2023/02/27 09:12:15;;;;;;;37.90;12.00;;;;;;;4.88;100.00;101256.04;103203;1286;60677;-84
2023/02/27 09:14:40;;;;;;;37.70;11.90;;;;;;;4.98;100.00;101257.71;103802;1285;60339;-82
2023/02/27 09:17:06;;;;;;;38.30;11.00;;;;;;;5.02;100.00;101255.53;103187;1283;61406;-82
2023/02/27 09:19:32;;;;;;;37.00;11.30;;;;;;;5.11;100.00;101247.02;103196;1285;60502;-83
2023/02/27 09:21:58;;;;;;;33.90;10.40;;;;;;;5.19;100.00;101242.13;103664;1286;60321;-83
2023/02/27 09:24:23;;;;;;;37.50;10.50;;;;;;;5.31;100.00;101244.14;103605;1288;60203;-84
2023/02/27 09:26:50;;;;;;;40.30;11.70;;;;;;;5.48;100.00;101240.61;102986;1290;60467;-84
2023/02/27 09:29:16;;;;;;;38.80;11.60;;;;;;;5.44;100.00;101242.27;103217;1288;60534;-84
2023/02/27 09:31:42;;;;;;;35.20;10.50;;;;;;;5.41;100.00;101245.69;103045;1292;60294;-83
2023/02/27 09:34:08;;;;;;;32.30;11.10;;;;;;;5.43;100.00;101239.27;103218;1294;60391;-83
2023/02/27 09:36:33;;;;;;;35.60;11.10;;;;;;;5.41;100.00;101238.54;103124;1288;60379;-83
2023/02/27 09:38:59;;;;;;;40.20;12.00;;;;;;;5.40;100.00;101234.54;102954;1290;60383;-83
2023/02/27 09:41:47;;;;;;;28.00;10.70;;;;;;;5.43;100.00;101237.88;106450;1288;59090;-84
2023/02/27 09:44:34;;;;;;;33.80;10.80;;;;;;;5.50;100.00;101229.54;106445;1288;73709;-84
2023/02/27 09:47:03;;;;;;;31.50;9.90;;;;;;;5.48;100.00;101228.89;106394;1288;72556;-83
2023/02/27 09:49:34;;;;;;;29.70;9.80;;;;;;;5.52;100.00;101231.17;106395;1288;62481;-84
2023/02/27 09:52:00;;;;;;;30.20;12.00;;;;;;;5.56;100.00;101223.27;106418;1288;58202;-83
2023/02/27 09:54:31;;;;;;;37.50;12.80;;;;;;;5.57;100.00;101213.60;106470;1288;58159;-84
2023/02/27 09:57:02;;;;;;;37.10;12.00;;;;;;;5.61;100.00;101211.24;106400;1289;73604;-83
2023/02/27 09:59:42;;;;;;;27.00;9.70;;;;;;;5.64;100.00;101209.46;106987;1283;73513;-83
2023/02/27 10:02:45;;;;;;;28.00;10.20;;;;;;;5.72;100.00;101211.85;106491;1288;61793;-83
2023/02/27 10:05:14;;;;;;;32.40;10.90;;;;;;;5.72;100.00;101220.15;106985;1285;60291;-84
2023/02/27 10:07:59;;;;;;;32.80;11.40;;;;;;;5.79;100.00;101219.27;106470;1285;72719;-84
2023/02/27 10:10:43;;;;;;;26.40;10.00;;;;;;;5.77;100.00;101222.32;106991;1285;73453;-84
2023/02/27 10:13:22;;;;;;;;;;;;;;;5.80;100.00;101223.59;106809;1284;72375;-84
2023/02/27 10:15:52;;;;;;;30.50;10.80;;;;;;;5.78;100.00;101225.40;106993;1284;60791;-84
2023/02/27 10:18:29;;;;;;;38.90;11.80;;;;;;;5.75;100.00;101226.91;106820;1284;61039;-83
2023/02/27 10:21:19;;;;;;;32.80;11.60;;;;;;;5.80;100.00;101229.80;106978;1283;73837;-84
2023/02/27 10:23:56;;;;;;;33.70;12.50;;;;;;;5.68;100.00;101227.34;107039;1284;73372;-85
2023/02/27 10:26:29;;;;;;;31.60;11.20;;;;;;;5.71;100.00;101223.50;106969;1285;73125;-83
2023/02/27 10:28:56;;;;;;;32.60;10.90;;;;;;;5.73;100.00;101214.58;106972;1283;60909;-83
2023/02/27 10:31:27;;;;;;;32.40;11.40;;;;;;;5.68;100.00;101205.49;106762;1284;61155;-83
2023/02/27 10:33:55;;;;;;;52.00;16.50;;;;;;;5.68;100.00;101204.48;106975;1285;74200;-83
2023/02/27 10:36:22;;;;;;;30.30;9.60;;;;;;;5.73;100.00;101209.43;106706;1284;74380;-83
2023/02/27 10:38:57;;;;;;;33.10;11.10;;;;;;;5.68;100.00;101211.94;106760;1285;58372;-84
2023/02/27 10:41:23;;;;;;;29.30;10.30;;;;;;;5.69;100.00;101206.32;107017;1284;61019;-83
2023/02/27 10:43:55;;;;;;;40.80;11.30;;;;;;;5.76;100.00;101203.45;106965;1283;59877;-85
2023/02/27 10:46:25;;;;;;;35.20;11.40;;;;;;;5.76;100.00;101202.59;106753;1284;75134;-84
2023/02/27 10:48:51;;;;;;;32.00;10.70;;;;;;;5.74;100.00;101202.75;106695;1285;74346;-83
2023/02/27 10:51:35;;;;;;;36.60;11.50;;;;;;;5.75;100.00;101199.09;106966;1283;58395;-84
2023/02/27 10:54:23;;;;;;;46.50;13.70;;;;;;;5.77;100.00;101202.70;106687;1284;61248;-82
2023/02/27 10:57:27;;;;;;;38.30;9.80;;;;;;;5.81;100.00;101202.92;107001;1285;60173;-84
2023/02/27 11:00:04;;;;;;;32.70;10.70;;;;;;;5.76;100.00;101205.80;106279;1289;73665;-82
2023/02/27 11:02:45;;;;;;;41.90;11.80;;;;;;;5.74;100.00;101202.46;106205;1289;74213;-82
2023/02/27 11:08:26;;;;;;;41.40;10.90;;;;;;;5.76;100.00;101220.10;106035;1292;61274;-81
2023/02/27 11:11:28;;;;;;;28.20;10.80;;;;;;;5.79;100.00;101230.21;105827;1296;61411;-84
2023/02/27 11:14:52;;;;;;;30.80;10.80;;;;;;;5.86;100.00;101238.21;105274;1304;74101;-84
2023/02/27 11:17:27;;;;;;;32.60;10.30;;;;;;;5.94;100.00;101241.86;104271;1312;73787;-83
2023/02/27 11:19:53;;;;;;;40.30;12.20;;;;;;;5.88;100.00;101242.73;104348;1312;73586;-83
2023/02/27 11:22:23;;;;;;;42.10;11.60;;;;;;;5.87;100.00;101240.99;104163;1314;58276;-83
2023/02/27 11:24:49;;;;;;;36.40;11.40;;;;;;;5.85;100.00;101240.56;104040;1313;60934;-84
2023/02/27 11:27:27;;;;;;;37.70;13.20;;;;;;;5.90;100.00;101242.30;104038;1315;73781;-83
2023/02/27 11:30:00;;;;;;;37.50;11.70;;;;;;;5.95;100.00;101246.31;104226;1314;74222;-84
2023/02/27 11:32:43;;;;;;;34.90;10.10;;;;;;;5.95;100.00;101249.31;104232;1314;71591;-83
2023/02/27 11:35:36;;;;;;;38.30;11.60;;;;;;;5.90;100.00;101253.52;104183;1314;61180;-84
2023/02/27 11:38:06;;;;;;;33.70;10.90;;;;;;;5.86;100.00;101252.08;104732;1311;61204;-83
2023/02/27 11:40:39;;;;;;;35.30;10.90;;;;;;;5.87;100.00;101256.77;104707;1309;72954;-84
2023/02/27 11:43:19;;;;;;;32.20;10.70;;;;;;;5.83;100.00;101253.41;104841;1303;73863;-84
2023/02/27 11:46:19;;;;;;;38.50;11.10;;;;;;;5.83;100.00;101259.70;105365;1302;72359;-83
2023/02/27 11:48:59;;;;;;;39.60;12.70;;;;;;;5.85;100.00;101256.95;105319;1299;61946;-83
2023/02/27 11:51:47;;;;;;;37.30;13.70;;;;;;;5.84;100.00;101258.87;105887;1293;60094;-84
2023/02/27 11:54:36;;;;;;;41.10;11.40;;;;;;;5.83;100.00;101261.96;106012;1293;72450;-83
2023/02/27 11:57:24;;;;;;;35.70;11.60;;;;;;;5.77;100.00;101260.89;105801;1294;74237;-83
2023/02/27 12:00:07;;;;;;;39.90;11.50;;;;;;;5.69;100.00;101275.72;106016;1293;73668;-84
2023/02/27 12:02:44;;;;;;;42.60;13.00;;;;;;;5.60;100.00;101281.50;106019;1293;61073;-83
2023/02/27 12:05:22;;;;;;;39.40;13.10;;;;;;;5.57;100.00;101284.02;105920;1294;60249;-83